Time;durP1;ratioP1;P1;durP2;ratioP2;P2;SDS_P1;SDS_P2;PMS_P1;PMS_P2;Temp;Humidity;BMP_temperature;BMP_pressure;BME280_temperature;BME280_humidity;BME280_pressure;Samples;Min_cycle;Max_cycle;Signal;HPM_P1;HPM_P2
2021/08/23 00:00:28;;;;;;;5.07;3.87;;;;;;;18.78;87.96;99578.94;4882158;29;20238;-86
2021/08/23 00:02:55;;;;;;;4.10;3.70;;;;;;;18.73;88.17;99553.72;4897911;29;20235;-87
2021/08/23 00:05:22;;;;;;;4.30;3.70;;;;;;;18.73;88.35;99559.13;4866995;29;20677;-85
2021/08/23 00:07:49;;;;;;;4.43;3.90;;;;;;;18.74;88.63;99555.34;4867369;29;20260;-91
2021/08/23 00:10:16;;;;;;;4.20;3.80;;;;;;;18.68;88.55;99548.28;4880572;29;20251;-87
2021/08/23 00:12:43;;;;;;;5.60;3.90;;;;;;;18.71;88.71;99550.47;4882291;29;20227;-87
2021/08/23 00:15:10;;;;;;;4.13;3.70;;;;;;;18.70;88.53;99562.41;4882365;29;20646;-87
2021/08/23 00:17:37;;;;;;;4.77;4.10;;;;;;;18.73;88.75;99567.28;4867124;29;20231;-87
2021/08/23 00:20:04;;;;;;;4.77;4.17;;;;;;;18.68;88.68;99562.66;4881622;29;20234;-87
2021/08/23 00:22:36;;;;;;;4.33;3.93;;;;;;;18.67;88.92;99565.66;4867000;29;20757;-96
2021/08/23 00:25:03;;;;;;;5.17;4.13;;;;;;;18.69;88.95;99564.31;4868106;29;20228;-94
2021/08/23 00:27:31;;;;;;;5.00;4.17;;;;;;;18.75;88.91;99565.13;4882750;29;20240;-95
2021/08/23 00:29:58;;;;;;;4.57;3.90;;;;;;;18.66;88.76;99554.00;4879325;29;20709;-95
2021/08/23 00:32:24;;;;;;;4.87;3.80;;;;;;;18.68;88.57;99540.16;4848403;29;20319;-92
2021/08/23 00:34:51;;;;;;;5.33;3.57;;;;;;;18.69;88.52;99547.22;4848885;29;20321;-92
2021/08/23 00:37:18;;;;;;;4.33;3.93;;;;;;;18.68;88.68;99545.56;4848467;29;20232;-92
2021/08/23 00:39:45;;;;;;;4.30;3.60;;;;;;;18.69;88.99;99544.50;4857870;29;20238;-91
2021/08/23 00:42:11;;;;;;;4.00;3.60;;;;;;;18.63;89.14;99537.44;4866725;29;20314;-93
2021/08/23 00:44:40;;;;;;;4.70;3.77;;;;;;;18.71;89.11;99550.47;4867017;29;20231;-91
2021/08/23 00:47:07;;;;;;;4.43;3.63;;;;;;;18.69;88.97;99552.63;4851745;29;20346;-96
2021/08/23 00:49:35;;;;;;;3.73;3.40;;;;;;;18.61;88.76;99548.59;4865364;29;20228;-95
2021/08/23 00:52:05;;;;;;;3.77;3.27;;;;;;;18.62;88.47;99541.22;4881777;29;20235;-94
2021/08/23 00:54:33;;;;;;;4.17;2.60;;;;;;;18.60;86.34;99540.72;4866697;29;20227;-89
2021/08/23 00:57:01;;;;;;;3.60;2.53;;;;;;;18.61;85.79;99542.34;4866777;29;20322;-95
2021/08/23 00:59:30;;;;;;;2.70;2.50;;;;;;;18.53;85.38;99540.97;4855456;29;20243;-95
2021/08/23 01:02:12;;;;;;;3.00;2.40;;;;;;;18.49;85.18;99535.25;4863507;29;20350;-95
2021/08/23 01:04:52;;;;;;;2.37;2.17;;;;;;;18.53;84.51;99549.13;4848192;29;20232;-94
2021/08/23 01:07:21;;;;;;;2.97;2.23;;;;;;;18.45;84.35;99533.38;4881857;29;20246;-93
2021/08/23 01:09:53;;;;;;;1.97;1.80;;;;;;;19.52;79.57;99536.59;4882084;29;20276;-96
2021/08/23 01:12:20;;;;;;;2.63;1.90;;;;;;;19.88;76.82;99537.19;4866822;29;20224;-95
2021/08/23 01:14:47;;;;;;;2.30;2.10;;;;;;;19.90;76.71;99540.44;4866837;29;20239;-95
2021/08/23 01:17:14;;;;;;;2.33;2.13;;;;;;;19.91;77.06;99542.91;4849658;29;20235;-92
2021/08/23 01:19:44;;;;;;;2.63;2.20;;;;;;;19.80;76.94;99530.44;4847947;29;20541;-96
2021/08/23 01:22:12;;;;;;;2.70;2.20;;;;;;;19.82;76.60;99527.47;4846999;29;20236;-92
2021/08/23 01:24:39;;;;;;;2.30;2.10;;;;;;;19.66;76.83;99518.59;4862896;29;20315;-94
2021/08/23 01:27:08;;;;;;;1.90;1.80;;;;;;;19.57;76.92;99514.84;4863136;29;20288;-95
2021/08/23 01:29:56;;;;;;;2.60;1.90;;;;;;;19.53;77.13;99513.78;4863032;29;20233;-96
2021/08/23 01:32:24;;;;;;;2.17;1.97;;;;;;;19.45;77.57;99511.66;4847595;29;20243;-94
2021/08/23 01:34:53;;;;;;;2.83;1.80;;;;;;;19.41;77.33;99511.34;4863091;29;20252;-93
2021/08/23 01:37:20;;;;;;;1.97;1.77;;;;;;;19.38;77.42;99501.06;4865532;29;20236;-93
2021/08/23 01:39:47;;;;;;;2.13;1.80;;;;;;;19.38;77.35;99498.34;4850765;29;20554;-92
2021/08/23 01:42:15;;;;;;;2.20;2.00;;;;;;;19.43;77.00;99497.50;4881244;29;20783;-92
2021/08/23 01:44:42;;;;;;;2.10;1.90;;;;;;;19.38;77.18;99516.53;4881457;29;20232;-95
2021/08/23 01:47:10;;;;;;;1.60;1.50;;;;;;;19.29;77.66;99511.69;4850338;29;20247;-92
2021/08/23 01:49:37;;;;;;;1.83;1.70;;;;;;;19.17;77.94;99511.22;4850561;29;20239;-95
2021/08/23 01:52:09;;;;;;;1.97;1.80;;;;;;;19.13;78.41;99517.50;4865534;29;20240;-94
2021/08/23 01:54:35;;;;;;;1.87;1.67;;;;;;;19.10;78.36;99515.31;4881458;29;20276;-96
2021/08/23 01:57:03;;;;;;;2.20;2.00;;;;;;;19.14;78.62;99510.94;4878072;29;20323;-94
2021/08/23 01:59:30;;;;;;;2.47;1.77;;;;;;;19.20;78.62;99518.81;4862594;29;20645;-95
2021/08/23 02:01:56;;;;;;;3.03;1.70;;;;;;;19.22;78.48;99513.09;4862761;29;20323;-96
2021/08/23 02:04:23;;;;;;;1.90;1.80;;;;;;;19.30;77.57;99507.91;4846732;29;20257;-93
2021/08/23 02:06:50;;;;;;;2.00;1.80;;;;;;;19.18;78.17;99510.13;4857788;29;20236;-95
2021/08/23 02:09:17;;;;;;;1.63;1.50;;;;;;;19.11;78.94;99514.22;4862661;29;20304;-94
2021/08/23 02:11:43;;;;;;;1.80;1.70;;;;;;;19.12;78.79;99519.41;4847331;29;20294;-95
2021/08/23 02:14:10;;;;;;;1.80;1.70;;;;;;;19.11;79.14;99508.81;4862077;29;20243;-93
2021/08/23 02:16:39;;;;;;;2.27;1.80;;;;;;;19.19;79.54;99522.59;4874266;29;20228;-90
2021/08/23 02:19:07;;;;;;;1.80;1.70;;;;;;;19.15;79.17;99534.31;4850621;29;20598;-95
2021/08/23 02:21:50;;;;;;;1.80;1.60;;;;;;;19.12;79.03;99530.25;4880856;29;20291;-93
2021/08/23 02:24:18;;;;;;;1.90;1.70;;;;;;;19.10;78.88;99535.13;4865312;29;20239;-95
2021/08/23 02:26:45;;;;;;;3.93;1.80;;;;;;;19.12;79.21;99541.13;4877593;29;20307;-95
2021/08/23 02:29:12;;;;;;;2.23;2.03;;;;;;;19.13;79.74;99548.16;4877061;29;20240;-92
2021/08/23 02:31:39;;;;;;;1.77;1.67;;;;;;;19.08;80.03;99539.25;4877407;29;20232;-94
2021/08/23 02:34:06;;;;;;;2.23;1.80;;;;;;;19.13;80.18;99552.78;4850044;29;20261;-95
2021/08/23 02:36:34;;;;;;;1.73;1.60;;;;;;;19.05;80.35;99546.00;4850231;29;20594;-88
2021/08/23 02:39:01;;;;;;;1.80;1.50;;;;;;;19.06;80.25;99558.50;4850244;29;20236;-94
2021/08/23 02:41:28;;;;;;;1.73;1.50;;;;;;;18.99;80.00;99549.81;4850614;29;20315;-96
2021/08/23 02:43:55;;;;;;;1.70;1.60;;;;;;;19.03;80.07;99556.34;4850619;29;20236;-93
2021/08/23 02:46:22;;;;;;;3.27;1.83;;;;;;;18.94;79.86;99539.00;4849820;29;20233;-94
2021/08/23 02:48:49;;;;;;;1.63;1.53;;;;;;;19.02;80.29;99552.00;4850445;29;20232;-95
2021/08/23 02:51:16;;;;;;;2.07;1.50;;;;;;;18.92;80.69;99538.47;4850560;29;20520;-96
2021/08/23 02:53:42;;;;;;;1.73;1.63;;;;;;;18.92;80.62;99561.00;4835073;29;20240;-93
2021/08/23 02:56:09;;;;;;;1.77;1.67;;;;;;;18.92;80.50;99568.31;4836152;29;20235;-94
2021/08/23 02:58:36;;;;;;;2.63;1.30;;;;;;;19.00;79.09;99556.06;4834771;29;20315;-93
2021/08/23 03:01:03;;;;;;;1.53;1.43;;;;;;;19.01;80.23;99563.94;4850325;29;20288;-92
2021/08/23 03:03:30;;;;;;;1.77;1.60;;;;;;;18.96;80.00;99546.84;4850227;29;20240;-93
2021/08/23 03:05:57;;;;;;;1.70;1.60;;;;;;;18.95;80.18;99542.50;4851445;29;20244;-94
2021/08/23 03:08:24;;;;;;;1.93;1.63;;;;;;;18.91;79.77;99553.94;4880094;29;20319;-93
2021/08/23 03:10:54;;;;;;;1.50;1.40;;;;;;;19.04;79.40;99559.84;4865010;29;20232;-88
2021/08/23 03:13:21;;;;;;;2.17;1.50;;;;;;;19.03;79.91;99563.69;4849946;29;20240;-93
2021/08/23 03:15:49;;;;;;;2.20;1.57;;;;;;;18.95;80.02;99556.09;4857106;29;20227;-88
2021/08/23 03:18:16;;;;;;;2.00;1.80;;;;;;;18.94;80.46;99555.31;4883231;29;20255;-92
2021/08/23 03:20:43;;;;;;;2.03;1.70;;;;;;;18.97;80.15;99562.88;4868332;29;20235;-88
2021/08/23 03:23:09;;;;;;;1.73;1.63;;;;;;;19.06;79.56;99566.66;4868494;29;20240;-93
2021/08/23 03:25:36;;;;;;;2.30;2.03;;;;;;;19.02;79.11;99562.06;4869444;29;20240;-95
2021/08/23 03:28:03;;;;;;;2.07;1.83;;;;;;;18.96;79.37;99547.69;4852372;29;20322;-94
2021/08/23 03:30:30;;;;;;;2.17;1.97;;;;;;;19.12;78.81;99564.75;4884460;29;20287;-88
2021/08/23 03:32:56;;;;;;;2.37;2.10;;;;;;;18.97;78.74;99568.31;4868034;29;20246;-88
2021/08/23 03:35:23;;;;;;;1.83;1.73;;;;;;;18.96;78.87;99557.72;4879403;29;20259;-91
2021/08/23 03:37:50;;;;;;;2.20;2.00;;;;;;;18.97;78.51;99567.50;4849536;29;20232;-89
2021/08/23 03:40:17;;;;;;;3.40;2.00;;;;;;;18.94;78.38;99559.91;4849589;29;20263;-89
2021/08/23 03:42:45;;;;;;;2.77;2.47;;;;;;;19.02;77.82;99570.19;4849385;29;20236;-91
2021/08/23 03:45:11;;;;;;;2.63;2.07;;;;;;;19.03;78.17;99572.66;4850797;29;20255;-88
2021/08/23 03:47:38;;;;;;;3.00;2.40;;;;;;;19.01;78.03;99566.66;4898652;29;20235;-92
2021/08/23 03:50:06;;;;;;;2.67;2.43;;;;;;;18.92;77.45;99574.56;4867273;29;20318;-90
2021/08/23 03:52:32;;;;;;;2.57;2.37;;;;;;;18.88;78.11;99576.22;4867495;29;20287;-88
2021/08/23 03:55:00;;;;;;;2.40;2.17;;;;;;;18.82;78.04;99557.47;4882778;29;20674;-92
2021/08/23 03:57:26;;;;;;;3.60;2.30;;;;;;;18.89;77.24;99558.84;4867722;29;20291;-90
2021/08/23 03:59:53;;;;;;;2.23;2.10;;;;;;;18.92;77.48;99577.28;4882622;29;20314;-88
2021/08/23 04:02:20;;;;;;;2.10;1.90;;;;;;;18.85;77.13;99570.50;4882607;29;20326;-90
2021/08/23 04:04:47;;;;;;;2.53;2.33;;;;;;;18.71;77.66;99556.69;4867157;29;20231;-89
2021/08/23 04:07:14;;;;;;;2.43;2.17;;;;;;;18.77;77.07;99562.91;4866926;29;20239;-92
2021/08/23 04:09:41;;;;;;;2.67;2.47;;;;;;;18.90;77.00;99584.88;4883003;29;20287;-95
2021/08/23 04:12:07;;;;;;;2.30;2.10;;;;;;;18.84;77.01;99579.75;4882496;29;20894;-88
2021/08/23 04:14:34;;;;;;;4.03;2.10;;;;;;;18.79;77.03;99571.63;4852173;29;20291;-91
2021/08/23 04:17:01;;;;;;;2.07;1.80;;;;;;;18.79;76.98;99585.19;4879232;29;20259;-92
2021/08/23 04:19:29;;;;;;;2.50;2.20;;;;;;;18.85;76.51;99582.16;4864040;29;20260;-93
2021/08/23 04:21:56;;;;;;;3.10;2.20;;;;;;;18.81;76.88;99583.81;4863916;29;20265;-88
2021/08/23 04:24:24;;;;;;;2.77;2.00;;;;;;;18.69;77.07;99585.19;4848585;29;20629;-88
2021/08/23 04:26:51;;;;;;;2.30;2.10;;;;;;;18.79;76.07;99594.16;4877818;29;20320;-90
2021/08/23 04:29:17;;;;;;;3.23;2.03;;;;;;;18.76;76.67;99574.84;4867205;29;20643;-89
2021/08/23 04:31:45;;;;;;;2.90;2.00;;;;;;;18.82;76.41;99595.47;4867019;29;20327;-91
2021/08/23 04:34:11;;;;;;;2.40;2.17;;;;;;;18.71;76.71;99589.25;4882089;29;20236;-89
2021/08/23 04:36:39;;;;;;;2.20;1.93;;;;;;;18.80;76.36;99612.03;4866884;29;20318;-90
2021/08/23 04:39:07;;;;;;;2.13;1.80;;;;;;;18.72;76.16;99611.78;4867583;29;20231;-90
2021/08/23 04:41:38;;;;;;;2.17;1.97;;;;;;;18.68;76.83;99616.94;4883199;29;20727;-87
2021/08/23 04:44:05;;;;;;;2.10;1.90;;;;;;;18.65;76.49;99614.78;4868439;29;20648;-86
2021/08/23 04:46:33;;;;;;;2.93;2.17;;;;;;;18.73;75.80;99627.78;4882568;29;20239;-91
2021/08/23 04:48:59;;;;;;;3.50;2.00;;;;;;;18.72;75.73;99630.78;4867268;29;20319;-93
2021/08/23 04:51:26;;;;;;;2.20;2.00;;;;;;;18.70;76.41;99638.41;4866970;29;20235;-91
2021/08/23 04:53:53;;;;;;;2.10;1.90;;;;;;;18.63;76.29;99630.50;4881920;29;20688;-90
2021/08/23 04:56:20;;;;;;;3.27;2.17;;;;;;;18.66;76.69;99642.75;4871541;29;20889;-86
2021/08/23 04:58:46;;;;;;;1.97;1.77;;;;;;;18.63;75.62;99657.66;4882299;29;20247;-92
2021/08/23 05:01:13;;;;;;;3.17;2.07;;;;;;;18.76;75.63;99653.56;4882219;29;20664;-91
2021/08/23 05:03:41;;;;;;;2.57;2.17;;;;;;;18.74;76.30;99645.72;4882805;29;20234;-91
2021/08/23 05:06:07;;;;;;;2.30;1.90;;;;;;;18.77;75.60;99647.06;4851372;29;20235;-90
2021/08/23 05:08:34;;;;;;;2.53;1.90;;;;;;;18.73;75.15;99644.09;4868000;29;20313;-91
2021/08/23 05:11:01;;;;;;;1.90;1.80;;;;;;;18.74;75.25;99648.44;4866819;29;20679;-88
2021/08/23 05:13:28;;;;;;;3.17;1.70;;;;;;;18.54;75.72;99643.00;4850909;29;20228;-91
2021/08/23 05:15:56;;;;;;;2.13;1.93;;;;;;;18.57;75.55;99642.44;4864904;29;20220;-92
2021/08/23 05:18:23;;;;;;;2.10;1.80;;;;;;;18.68;75.11;99643.25;4882782;29;20255;-90
2021/08/23 05:20:50;;;;;;;2.10;1.87;;;;;;;18.54;76.06;99634.84;4867984;29;20295;-92
2021/08/23 05:23:17;;;;;;;2.07;1.80;;;;;;;18.56;75.71;99634.59;4866554;29;20639;-88
2021/08/23 05:25:43;;;;;;;1.70;1.60;;;;;;;18.65;75.42;99631.06;4866128;29;20232;-95
2021/08/23 05:28:10;;;;;;;1.97;1.77;;;;;;;18.69;74.30;99645.72;4850296;29;20232;-88
2021/08/23 05:30:37;;;;;;;2.80;1.50;;;;;;;18.77;74.35;99645.16;4866003;29;20235;-93
2021/08/23 05:33:04;;;;;;;2.93;1.77;;;;;;;18.97;74.06;99651.66;4862320;29;20236;-91
2021/08/23 05:35:30;;;;;;;1.60;1.50;;;;;;;18.96;73.59;99645.41;4862642;29;20236;-90
2021/08/23 05:37:57;;;;;;;1.70;1.60;;;;;;;18.96;73.31;99634.56;4860070;29;20239;-88
2021/08/23 05:40:24;;;;;;;2.20;1.87;;;;;;;19.03;73.28;99639.72;4847118;29;20232;-88
2021/08/23 05:42:51;;;;;;;1.70;1.50;;;;;;;19.12;72.77;99635.34;4855066;29;20235;-88
2021/08/23 05:45:19;;;;;;;2.80;1.70;;;;;;;19.19;72.75;99639.38;4880829;29;20258;-88
2021/08/23 05:47:46;;;;;;;2.57;1.60;;;;;;;19.35;70.91;99635.56;4872545;29;20231;-90
2021/08/23 05:50:12;;;;;;;2.40;1.63;;;;;;;19.49;70.79;99632.28;4863247;29;20238;-86
2021/08/23 05:52:39;;;;;;;1.67;1.57;;;;;;;19.54;68.07;99630.34;4847238;29;20600;-89
2021/08/23 05:55:07;;;;;;;1.70;1.50;;;;;;;19.28;68.24;99626.06;4862352;29;20240;-88
2021/08/23 05:57:33;;;;;;;1.80;1.70;;;;;;;19.24;68.01;99620.38;4832392;29;20274;-94
2021/08/23 06:00:00;;;;;;;1.70;1.60;;;;;;;19.24;68.79;99622.25;4846988;29;20240;-91
2021/08/23 06:02:28;;;;;;;2.30;2.10;;;;;;;19.33;69.55;99634.19;4863248;29;20310;-93
2021/08/23 06:04:54;;;;;;;2.73;1.90;;;;;;;19.36;69.22;99629.00;4847188;29;20537;-88
2021/08/23 06:07:21;;;;;;;1.70;1.60;;;;;;;19.17;70.02;99640.75;4846578;29;20236;-91
2021/08/23 06:09:48;;;;;;;2.10;1.70;;;;;;;19.11;68.49;99633.72;4848647;29;20321;-88
2021/08/23 06:12:16;;;;;;;2.37;1.80;;;;;;;19.13;68.05;99629.63;4880059;29;20235;-91
2021/08/23 06:14:43;;;;;;;2.13;1.90;;;;;;;19.14;68.58;99639.41;4849889;29;20231;-89
2021/08/23 06:17:10;;;;;;;3.13;2.00;;;;;;;19.15;68.52;99619.31;4865665;29;20323;-89
2021/08/23 06:19:37;;;;;;;3.20;1.90;;;;;;;19.27;68.03;99630.66;4879196;29;20232;-89
2021/08/23 06:22:03;;;;;;;2.10;1.80;;;;;;;19.26;67.72;99625.53;4880248;29;20235;-93
2021/08/23 06:24:30;;;;;;;2.73;2.20;;;;;;;19.31;67.27;99628.22;4880598;29;20632;-90
2021/08/23 06:26:57;;;;;;;2.50;2.00;;;;;;;19.49;66.51;99632.28;4865000;29;20231;-88
2021/08/23 06:29:24;;;;;;;3.37;2.07;;;;;;;19.55;66.41;99626.53;4880314;29;20239;-90
2021/08/23 06:31:51;;;;;;;2.00;1.90;;;;;;;19.68;66.25;99636.81;4865160;29;20590;-90
2021/08/23 06:34:18;;;;;;;3.10;1.90;;;;;;;19.71;66.21;99628.09;4877315;29;20260;-88
2021/08/23 06:36:45;;;;;;;2.70;1.90;;;;;;;19.72;65.30;99628.91;4863959;29;20741;-88
2021/08/23 06:39:12;;;;;;;2.33;2.13;;;;;;;19.93;64.00;99632.31;4876165;29;20235;-88
2021/08/23 06:41:39;;;;;;;2.80;2.17;;;;;;;20.04;64.37;99651.03;4856189;29;20228;-92
2021/08/23 06:44:06;;;;;;;2.60;2.40;;;;;;;20.18;64.17;99641.16;4846304;29;20228;-87
2021/08/23 06:46:33;;;;;;;2.50;2.20;;;;;;;20.21;63.05;99639.75;4876930;29;20319;-90
2021/08/23 06:49:00;;;;;;;3.47;2.27;;;;;;;20.37;62.15;99638.59;4865301;29;20228;-87
2021/08/23 06:51:27;;;;;;;2.63;2.10;;;;;;;20.41;62.50;99630.69;4860909;29;20236;-89
2021/08/23 06:53:54;;;;;;;2.20;2.00;;;;;;;20.62;62.74;99641.09;4880353;29;20633;-89
2021/08/23 06:56:21;;;;;;;2.00;1.90;;;;;;;20.65;61.25;99635.09;4879617;29;20228;-91
2021/08/23 06:58:48;;;;;;;2.23;2.10;;;;;;;20.59;61.27;99644.41;4868779;29;20247;-93
2021/08/23 07:01:15;;;;;;;2.67;2.47;;;;;;;20.74;60.78;99654.38;4854802;29;20299;-89
2021/08/23 07:03:42;;;;;;;3.50;2.60;;;;;;;20.90;61.28;99642.22;4864623;29;20241;-91
2021/08/23 07:06:09;;;;;;;2.57;2.30;;;;;;;21.07;60.57;99639.88;4864915;29;20254;-90
2021/08/23 07:08:44;;;;;;;2.47;2.27;;;;;;;21.37;60.32;99636.03;4858090;29;20235;-91
2021/08/23 07:11:11;;;;;;;3.67;2.10;;;;;;;21.19;58.24;99630.53;4856340;29;20258;-90
2021/08/23 07:13:39;;;;;;;2.73;2.47;;;;;;;21.60;58.35;99645.34;4895156;29;20318;-92
2021/08/23 07:16:06;;;;;;;2.50;2.30;;;;;;;21.82;57.76;99647.50;4876136;29;20288;-89
2021/08/23 07:18:33;;;;;;;3.00;2.30;;;;;;;21.73;57.83;99649.25;4861442;29;20237;-89
2021/08/23 07:21:00;;;;;;;2.83;2.53;;;;;;;22.00;56.02;99644.00;4864489;29;20232;-88
2021/08/23 07:23:27;;;;;;;2.30;2.10;;;;;;;22.13;55.98;99642.44;4879727;29;20236;-89
2021/08/23 07:25:55;;;;;;;2.53;2.30;;;;;;;22.31;56.68;99638.91;4861805;29;20235;-89
2021/08/23 07:28:26;;;;;;;2.30;2.10;;;;;;;22.62;53.65;99644.72;4852555;29;20543;-88
2021/08/23 07:30:53;;;;;;;2.80;2.40;;;;;;;22.93;53.94;99653.22;4852283;29;20572;-88
2021/08/23 07:33:20;;;;;;;2.70;2.27;;;;;;;23.39;52.20;99656.72;4867111;29;20234;-89
2021/08/23 07:35:47;;;;;;;2.10;1.93;;;;;;;23.51;52.03;99659.81;4867295;29;20237;-88
2021/08/23 07:38:13;;;;;;;2.50;2.30;;;;;;;23.69;51.03;99642.47;4897716;29;20654;-88
2021/08/23 07:40:40;;;;;;;2.57;2.37;;;;;;;24.00;49.88;99641.81;4867202;29;20304;-89
2021/08/23 07:43:07;;;;;;;11.57;2.83;;;;;;;24.19;50.65;99650.72;4867209;29;20350;-91
2021/08/23 07:45:35;;;;;;;2.60;2.20;;;;;;;23.95;49.49;99636.44;4882401;29;20296;-89
2021/08/23 07:48:03;;;;;;;3.03;2.27;;;;;;;24.34;49.68;99644.06;4881808;29;20299;-87
2021/08/23 07:50:30;;;;;;;2.50;2.30;;;;;;;24.34;47.59;99630.38;4866808;29;20296;-88
2021/08/23 07:52:57;;;;;;;6.40;2.60;;;;;;;24.36;49.38;99637.16;4882098;29;20292;-88
2021/08/23 07:55:24;;;;;;;3.57;2.20;;;;;;;24.79;49.18;99631.16;4881888;29;20231;-88
2021/08/23 07:57:51;;;;;;;2.73;2.43;;;;;;;24.87;49.87;99649.66;4851559;29;20228;-87
2021/08/23 08:00:20;;;;;;;2.60;2.30;;;;;;;24.71;48.56;99643.72;4878241;29;20240;-88
2021/08/23 08:02:47;;;;;;;3.67;2.40;;;;;;;24.52;50.09;99635.69;4861823;29;20243;-87
2021/08/23 08:05:14;;;;;;;2.60;2.40;;;;;;;24.14;50.62;99635.19;4861475;29;20308;-89
2021/08/23 08:07:42;;;;;;;2.40;2.20;;;;;;;24.13;50.38;99638.22;4863579;29;20659;-87
2021/08/23 08:10:10;;;;;;;2.30;2.03;;;;;;;23.95;50.73;99641.91;4862972;29;20331;-86
2021/08/23 08:12:37;;;;;;;2.63;2.40;;;;;;;23.53;50.71;99634.88;4863300;29;20241;-89
2021/08/23 08:15:05;;;;;;;2.90;2.60;;;;;;;23.59;52.35;99645.41;4863441;29;20239;-89
2021/08/23 08:17:33;;;;;;;2.53;2.30;;;;;;;23.50;52.16;99651.91;4862971;29;20242;-87
2021/08/23 08:19:59;;;;;;;3.30;2.47;;;;;;;23.50;51.80;99639.03;4848081;29;20240;-87
2021/08/23 08:22:26;;;;;;;3.90;2.43;;;;;;;22.94;52.19;99636.53;4847845;29;20371;-89
2021/08/23 08:24:53;;;;;;;2.67;2.47;;;;;;;23.10;51.15;99626.91;4863236;29;20269;-88
2021/08/23 08:27:20;;;;;;;2.60;2.40;;;;;;;23.01;52.08;99628.72;4863671;29;20271;-88
2021/08/23 08:29:48;;;;;;;3.03;2.33;;;;;;;22.83;53.19;99618.69;4862861;29;20227;-86
2021/08/23 08:32:15;;;;;;;2.63;2.30;;;;;;;22.49;52.86;99607.25;4847566;29;20271;-88
2021/08/23 08:34:42;;;;;;;3.17;2.67;;;;;;;22.69;53.49;99620.53;4847831;29;20237;-87
2021/08/23 08:37:09;;;;;;;3.83;2.40;;;;;;;22.82;54.08;99614.31;4847726;29;20234;-88
2021/08/23 08:39:36;;;;;;;2.87;2.50;;;;;;;22.99;53.87;99627.44;4847399;29;20315;-87
2021/08/23 08:42:03;;;;;;;2.80;2.60;;;;;;;22.86;53.83;99620.03;4855207;29;20583;-88
2021/08/23 08:44:33;;;;;;;2.80;2.43;;;;;;;22.96;53.45;99617.09;4860268;29;20314;-86
2021/08/23 08:47:00;;;;;;;3.30;2.40;;;;;;;23.04;52.70;99616.41;4870122;29;20283;-87
2021/08/23 08:49:29;;;;;;;2.60;2.40;;;;;;;23.19;52.92;99616.91;4881297;29;20238;-88
2021/08/23 08:51:57;;;;;;;3.83;2.30;;;;;;;23.58;51.68;99612.91;4881411;29;20353;-89
2021/08/23 08:54:24;;;;;;;2.80;2.30;;;;;;;23.81;50.84;99609.13;4877776;29;20235;-86
2021/08/23 08:56:51;;;;;;;3.67;3.30;;;;;;;23.98;51.12;99605.75;4858611;29;20287;-88
2021/08/23 08:59:17;;;;;;;4.07;2.77;;;;;;;23.95;51.09;99607.16;4849390;29;20276;-87
2021/08/23 09:01:45;;;;;;;3.93;2.30;;;;;;;24.11;51.15;99605.69;4850147;29;20249;-85
2021/08/23 09:04:12;;;;;;;3.07;2.57;;;;;;;24.34;50.38;99606.56;4864711;29;20241;-85
2021/08/23 09:06:58;;;;;;;2.90;2.67;;;;;;;24.52;50.41;99605.56;4881375;29;20252;-90
2021/08/23 09:09:26;;;;;;;2.60;2.20;;;;;;;24.97;49.10;99600.84;4864961;29;20258;-87
2021/08/23 09:12:06;;;;;;;3.33;2.30;;;;;;;25.30;48.01;99600.50;4880632;29;20239;-86
2021/08/23 09:14:37;;;;;;;2.45;2.25;;;;;;;25.20;45.96;99593.34;4880003;29;20629;-87
2021/08/23 09:17:05;;;;;;;3.37;2.40;;;;;;;25.33;45.40;99597.94;4880456;29;20234;-86
2021/08/23 09:19:37;;;;;;;2.22;2.05;;;;;;;25.55;46.48;99596.25;4880638;29;20321;-86
2021/08/23 09:22:10;;;;;;;2.83;2.28;;;;;;;25.57;47.14;99585.78;4880172;29;20232;-86
2021/08/23 09:24:39;;;;;;;3.30;2.23;;;;;;;25.35;45.75;99573.75;4880542;29;20584;-85
2021/08/23 09:27:11;;;;;;;2.00;1.90;;;;;;;25.21;46.38;99583.19;4864867;29;20227;-86
2021/08/23 09:29:59;;;;;;;3.33;2.45;;;;;;;24.98;47.11;99575.06;4880575;29;20239;-85
2021/08/23 09:32:28;;;;;;;2.92;2.42;;;;;;;24.83;47.08;99567.22;4879333;29;20269;-86
2021/08/23 09:34:55;;;;;;;3.28;2.05;;;;;;;24.71;47.72;99566.19;4863486;29;20598;-84
2021/08/23 09:37:24;;;;;;;2.20;2.00;;;;;;;24.78;47.13;99563.78;4879935;29;20290;-85
2021/08/23 09:39:53;;;;;;;2.30;2.10;;;;;;;24.61;47.11;99561.78;4864601;29;20292;-88
2021/08/23 09:42:24;;;;;;;2.50;2.17;;;;;;;24.61;47.18;99571.94;4850450;29;20240;-86
2021/08/23 09:44:52;;;;;;;2.80;2.40;;;;;;;24.40;48.21;99571.66;4846523;29;20570;-88
2021/08/23 09:47:29;;;;;;;4.93;2.43;;;;;;;24.41;48.44;99584.19;4861415;29;20235;-87
2021/08/23 09:49:57;;;;;;;2.47;2.27;;;;;;;24.41;47.77;99581.47;4861473;29;20243;-89
2021/08/23 09:52:34;;;;;;;4.23;2.80;;;;;;;24.35;47.78;99566.31;4861986;29;20521;-90
2021/08/23 09:55:04;;;;;;;3.00;2.70;;;;;;;24.04;46.87;99563.44;4879517;29;20234;-87
2021/08/23 09:57:33;;;;;;;3.00;2.40;;;;;;;24.26;47.34;99573.63;4880454;29;20217;-85
2021/08/23 10:00:02;;;;;;;2.80;2.20;;;;;;;24.21;45.56;99562.81;4879328;29;20241;-85
2021/08/23 10:02:43;;;;;;;2.77;2.50;;;;;;;24.64;46.61;99571.28;4894137;29;20224;-87
2021/08/23 10:05:15;;;;;;;2.40;2.20;;;;;;;25.15;45.73;99571.56;4879697;29;20233;-85
2021/08/23 10:07:43;;;;;;;2.47;2.27;;;;;;;25.17;44.14;99555.63;4864173;29;20627;-85
2021/08/23 10:10:10;;;;;;;2.80;1.93;;;;;;;25.81;43.66;99544.97;4879346;29;20259;-85
2021/08/23 10:12:37;;;;;;;2.57;2.20;;;;;;;26.15;42.52;99552.38;4879950;29;20240;-84
2021/08/23 10:15:05;;;;;;;2.33;2.13;;;;;;;26.83;41.35;99551.47;4879733;29;20318;-84
2021/08/23 10:17:36;;;;;;;2.58;2.38;;;;;;;27.35;40.26;99565.81;4879671;29;20294;-86
2021/08/23 10:20:08;;;;;;;2.30;2.10;;;;;;;27.18;40.09;99554.91;4864544;29;20299;-87
2021/08/23 10:22:38;;;;;;;2.33;2.13;;;;;;;27.34;39.75;99557.91;4879929;29;20264;-87
2021/08/23 10:25:07;;;;;;;2.00;1.80;;;;;;;27.44;40.84;99552.00;4879470;29;20724;-84
2021/08/23 10:27:35;;;;;;;2.75;2.05;;;;;;;27.13;39.37;99555.09;4863910;29;20307;-84
2021/08/23 10:30:02;;;;;;;2.58;2.20;;;;;;;26.98;39.94;99539.97;4863705;29;20295;-86
2021/08/23 10:32:35;;;;;;;2.53;2.05;;;;;;;27.54;39.20;99552.47;4864013;29;20284;-85
2021/08/23 10:35:23;;;;;;;2.50;2.13;;;;;;;27.75;38.78;99544.25;4879878;29;20255;-84
2021/08/23 10:37:53;;;;;;;2.97;2.30;;;;;;;27.35;39.29;99545.75;4879940;29;20224;-85
2021/08/23 10:40:33;;;;;;;2.25;2.05;;;;;;;27.27;39.22;99539.19;4863891;29;20252;-86
2021/08/23 10:43:21;;;;;;;2.45;2.00;;;;;;;27.33;37.26;99537.84;4861305;29;20242;-85
2021/08/23 10:45:48;;;;;;;3.35;2.30;;;;;;;27.28;37.32;99550.97;4845813;29;20608;-85
2021/08/23 10:48:17;;;;;;;2.05;1.88;;;;;;;27.26;37.98;99540.31;4845162;29;20653;-89
2021/08/23 10:50:57;;;;;;;2.20;2.00;;;;;;;26.73;38.49;99543.59;4860965;29;20286;-85
2021/08/23 10:53:35;;;;;;;2.47;1.90;;;;;;;26.50;39.43;99553.97;4869202;29;20227;-85
2021/08/23 10:56:19;;;;;;;2.22;1.85;;;;;;;27.21;38.55;99550.69;4883092;29;20318;-86
2021/08/23 10:58:46;;;;;;;2.05;1.90;;;;;;;27.12;37.80;99553.47;4883138;29;20283;-85
2021/08/23 11:01:16;;;;;;;2.90;1.73;;;;;;;27.15;38.14;99545.41;4898566;29;20288;-86
2021/08/23 11:03:43;;;;;;;3.92;2.05;;;;;;;27.89;37.63;99538.47;4883038;29;20304;-86
2021/08/23 11:06:09;;;;;;;2.10;1.90;;;;;;;27.73;38.13;99532.75;4867263;29;20316;-84
2021/08/23 11:08:36;;;;;;;1.75;1.60;;;;;;;27.08;36.94;99530.53;4882868;29;20309;-86
2021/08/23 11:11:13;;;;;;;1.90;1.70;;;;;;;27.61;37.08;99524.44;4867552;29;20250;-85
2021/08/23 11:13:41;;;;;;;2.15;1.90;;;;;;;27.02;37.21;99521.66;4878609;29;20239;-86
2021/08/23 11:16:09;;;;;;;2.38;1.70;;;;;;;27.77;36.74;99517.16;4858531;29;20231;-86
2021/08/23 11:18:42;;;;;;;2.20;1.95;;;;;;;27.79;37.26;99506.63;4843276;29;20237;-86
2021/08/23 11:21:18;;;;;;;1.80;1.50;;;;;;;28.12;36.37;99522.41;4882372;29;20255;-85
2021/08/23 11:23:45;;;;;;;2.28;1.67;;;;;;;27.95;35.75;99515.88;4882073;29;20250;-84
2021/08/23 11:26:24;;;;;;;1.40;1.30;;;;;;;28.11;35.25;99523.56;4866602;29;20229;-78
2021/08/23 11:28:51;;;;;;;1.70;1.60;;;;;;;28.21;35.15;99517.63;4867336;29;20292;-83
2021/08/23 11:31:20;;;;;;;1.55;1.45;;;;;;;28.43;34.89;99520.00;4873486;29;20274;-85
2021/08/23 11:33:47;;;;;;;1.67;1.40;;;;;;;28.95;35.68;99520.22;4848843;29;20722;-82
2021/08/23 11:36:19;;;;;;;2.20;1.90;;;;;;;29.07;34.24;99528.50;4878885;29;20259;-86
2021/08/23 11:38:46;;;;;;;1.50;1.40;;;;;;;29.06;34.27;99523.34;4848711;29;20260;-87